createdAt,value
2023-02-13T15:30:26.513Z,103307.00
2023-02-13T15:32:59.659Z,103315.00
2023-02-13T15:35:28.589Z,103306.00
2023-02-13T15:37:55.538Z,103293.00
2023-02-13T15:40:26.765Z,103305.00
2023-02-13T15:42:54.440Z,103306.00
2023-02-13T15:45:23.391Z,103303.00
2023-02-13T15:47:50.846Z,103297.00
2023-02-13T15:50:18.542Z,103307.00
2023-02-13T15:52:45.687Z,103286.00
2023-02-13T15:55:28.286Z,103292.00
2023-02-13T15:57:57.357Z,103289.00
2023-02-13T16:00:30.766Z,103291.00
2023-02-13T16:02:59.500Z,103291.00
2023-02-13T16:05:40.777Z,103267.00
2023-02-13T16:08:31.049Z,103278.00
2023-02-13T16:11:16.316Z,103268.00
2023-02-13T16:13:55.380Z,103280.00
2023-02-13T16:16:24.085Z,103282.00
2023-02-13T16:18:52.324Z,103289.00
2023-02-13T16:21:25.225Z,103265.00
2023-02-13T16:23:59.384Z,103278.00
2023-02-13T16:26:26.817Z,103291.00
2023-02-13T16:28:55.799Z,103282.00
2023-02-13T16:31:23.529Z,103281.00
2023-02-13T16:33:50.588Z,103262.00
2023-02-13T16:36:26.070Z,103271.00
2023-02-13T16:38:52.922Z,103254.00
2023-02-13T16:41:19.773Z,103266.00
2023-02-13T16:43:54.103Z,103264.00
2023-02-13T16:46:25.758Z,103275.00
2023-02-13T16:49:01.593Z,103284.00
2023-02-13T16:52:03.915Z,103275.00
2023-02-13T16:54:35.451Z,103257.00
2023-02-13T16:57:05.400Z,103269.00
2023-02-13T16:59:55.090Z,103275.00
2023-02-13T17:02:28.521Z,103249.00
2023-02-13T17:05:07.479Z,103267.00
2023-02-13T17:07:41.747Z,103266.00
2023-02-13T17:10:31.317Z,103270.00
2023-02-13T17:13:12.646Z,103266.00
2023-02-13T17:15:44.399Z,103265.00
2023-02-13T17:18:11.319Z,103268.00
2023-02-13T17:20:41.350Z,103262.00
2023-02-13T17:23:13.594Z,103258.00
2023-02-13T17:25:40.547Z,103257.00
2023-02-13T17:28:15.104Z,103255.00
2023-02-13T17:30:42.685Z,103256.00
2023-02-13T17:33:23.828Z,103250.00
2023-02-13T17:35:51.326Z,103251.00
2023-02-13T17:38:18.533Z,103267.00
2023-02-13T17:40:45.490Z,103272.00
2023-02-13T17:43:13.464Z,103270.00
2023-02-13T17:45:40.474Z,103271.00
2023-02-13T17:48:07.395Z,103279.00
2023-02-13T17:50:35.205Z,103286.00
2023-02-13T17:53:07.267Z,103291.00
2023-02-13T17:55:34.933Z,103283.00
2023-02-13T17:58:02.462Z,103286.00
2023-02-13T18:00:32.322Z,103281.00
2023-02-13T18:03:00.350Z,103269.00
2023-02-13T18:05:28.137Z,103271.00
2023-02-13T18:07:55.472Z,103276.00
2023-02-13T18:10:25.347Z,103267.00
2023-02-13T18:12:53.011Z,103282.00
2023-02-13T18:15:20.321Z,103272.00
2023-02-13T18:17:47.475Z,103268.00
2023-02-13T18:20:19.912Z,103273.00
2023-02-13T18:22:47.401Z,103276.00
2023-02-13T18:25:14.321Z,103279.00
2023-02-13T18:27:41.264Z,103274.00
2023-02-13T18:30:09.770Z,103267.00
2023-02-13T18:32:36.706Z,103264.00
2023-02-13T18:35:03.791Z,103274.00
2023-02-13T18:37:30.750Z,103272.00
2023-02-13T18:39:57.680Z,103282.00
2023-02-13T18:42:24.999Z,103288.00
2023-02-13T18:44:51.948Z,103286.00
2023-02-13T18:47:18.895Z,103283.00
2023-02-13T18:50:04.385Z,103287.00
2023-02-13T18:52:31.231Z,103290.00
2023-02-13T18:54:58.125Z,103288.00
2023-02-13T18:57:24.972Z,103277.00
2023-02-13T18:59:51.836Z,103281.00
2023-02-13T19:02:18.778Z,103279.00
2023-02-13T19:04:45.728Z,103290.00
2023-02-13T19:07:12.578Z,103292.00
2023-02-13T19:09:40.437Z,103307.00
2023-02-13T19:12:08.176Z,103303.00
2023-02-13T19:14:35.136Z,103303.00
2023-02-13T19:17:02.116Z,103296.00
2023-02-13T19:19:28.993Z,103294.00
2023-02-13T19:21:55.902Z,103296.00
2023-02-13T19:24:22.773Z,103308.00
2023-02-13T19:26:49.637Z,103302.00
2023-02-13T19:29:16.476Z,103290.00
2023-02-13T19:31:43.551Z,103298.00
2023-02-13T19:34:10.504Z,103297.00
2023-02-13T19:36:37.312Z,103295.00
2023-02-13T19:39:05.494Z,103291.00
2023-02-13T19:41:33.096Z,103302.00
2023-02-13T19:44:01.110Z,103300.00
2023-02-13T19:46:30.322Z,103289.00
2023-02-13T19:48:57.592Z,103291.00
2023-02-13T19:51:30.534Z,103297.00
2023-02-13T19:54:03.060Z,103292.00
2023-02-13T19:56:30.902Z,103290.00
2023-02-13T19:58:57.765Z,103280.00
2023-02-13T20:01:26.654Z,103283.00
2023-02-13T20:03:53.891Z,103290.00
2023-02-13T20:06:23.308Z,103293.00
2023-02-13T20:08:50.600Z,103284.00
2023-02-13T20:11:19.166Z,103281.00
2023-02-13T20:13:46.037Z,103271.00
2023-02-13T20:16:14.731Z,103277.00
2023-02-13T20:18:41.862Z,103279.00
2023-02-13T20:21:10.610Z,103298.00
2023-02-13T20:23:37.749Z,103303.00
2023-02-13T20:26:10.918Z,103314.00
2023-02-13T20:28:38.101Z,103320.00
2023-02-13T20:31:10.599Z,103319.00
2023-02-13T20:33:38.921Z,103319.00
2023-02-13T20:36:14.172Z,103315.00
2023-02-13T20:38:41.604Z,103304.00
2023-02-13T20:41:13.852Z,103305.00
2023-02-13T20:43:40.934Z,103300.00
2023-02-13T20:46:08.112Z,103319.00
2023-02-13T20:48:36.883Z,103314.00
2023-02-13T20:51:06.378Z,103310.00
2023-02-13T20:53:34.061Z,103301.00
2023-02-13T20:56:05.365Z,103304.00
2023-02-13T20:58:33.297Z,103301.00
2023-02-13T21:01:00.834Z,103319.00
2023-02-13T21:03:27.900Z,103311.00
2023-02-13T21:05:54.764Z,103292.00
2023-02-13T21:08:21.635Z,103303.00
2023-02-13T21:10:48.536Z,103311.00
2023-02-13T21:13:15.331Z,103302.00
2023-02-13T21:15:42.337Z,103319.00
2023-02-13T21:18:09.519Z,103327.00
2023-02-13T21:20:36.676Z,103327.00
2023-02-13T21:23:05.384Z,103304.00
2023-02-13T21:25:33.393Z,103322.00
2023-02-13T21:28:00.300Z,103335.00
2023-02-13T21:30:27.238Z,103331.00
2023-02-13T21:32:54.096Z,103326.00
2023-02-13T21:35:20.959Z,103330.00
2023-02-13T21:37:47.772Z,103338.00
2023-02-13T21:40:14.692Z,103342.00
2023-02-13T21:42:41.470Z,103339.00
2023-02-13T21:45:09.166Z,103348.00
2023-02-13T21:47:36.027Z,103326.00
2023-02-13T21:50:02.903Z,103318.00
2023-02-13T21:53:07.290Z,103342.00
2023-02-13T21:55:37.277Z,103322.00
2023-02-13T21:58:27.625Z,103319.00
2023-02-13T22:00:54.649Z,103319.00
2023-02-13T22:04:05.550Z,103333.00
2023-02-13T22:09:53.904Z,103336.00
2023-02-13T22:16:04.680Z,103347.00
2023-02-13T22:19:05.531Z,103355.00
2023-02-13T22:21:38.973Z,103346.00
2023-02-13T22:24:06.245Z,103337.00
2023-02-13T22:26:38.630Z,103340.00
2023-02-13T22:29:22.974Z,103357.00
2023-02-13T22:32:11.195Z,103320.00
2023-02-13T22:34:41.233Z,103330.00
2023-02-13T22:37:09.416Z,103333.00
2023-02-13T22:39:39.782Z,103331.00
2023-02-13T22:42:27.957Z,103322.00
2023-02-13T22:45:16.171Z,103323.00
2023-02-13T22:47:49.280Z,103323.00
2023-02-13T22:50:16.174Z,103318.00
2023-02-13T22:52:46.060Z,103338.00
2023-02-13T22:55:33.497Z,103314.00
2023-02-13T22:58:06.396Z,103314.00
2023-02-13T23:01:32.801Z,103324.00
2023-02-13T23:04:08.386Z,103335.00
2023-02-13T23:13:30.684Z,103331.00
2023-02-13T23:23:50.420Z,103324.00
2023-02-13T23:26:54.202Z,103328.00
2023-02-13T23:33:27.112Z,103335.00
2023-02-13T23:43:19.180Z,103334.00
2023-02-13T23:46:23.595Z,103310.00
2023-02-13T23:49:43.656Z,103311.00
2023-02-13T23:53:25.417Z,103315.00
2023-02-13T23:55:52.307Z,103310.00
2023-02-13T23:58:19.112Z,103307.00
